sensor_id;sensor_type;location;lat;lon;timestamp;temperature;humidity
25550;DHT22;13444;50.562;7.262;2022-08-01T00:02:10;23.20;99.90
25550;DHT22;13444;50.562;7.262;2022-08-01T00:04:35;23.20;99.90
25550;DHT22;13444;50.562;7.262;2022-08-01T00:07:01;23.20;99.90
25550;DHT22;13444;50.562;7.262;2022-08-01T00:09:26;23.10;99.90
25550;DHT22;13444;50.562;7.262;2022-08-01T00:11:52;23.00;99.90
25550;DHT22;13444;50.562;7.262;2022-08-01T00:14:17;23.00;99.90
25550;DHT22;13444;50.562;7.262;2022-08-01T00:16:43;23.00;99.90
25550;DHT22;13444;50.562;7.262;2022-08-01T00:19:08;23.00;99.90
25550;DHT22;13444;50.562;7.262;2022-08-01T00:21:34;23.00;99.90
25550;DHT22;13444;50.562;7.262;2022-08-01T00:23:59;23.00;99.90
25550;DHT22;13444;50.562;7.262;2022-08-01T00:26:25;23.00;99.90
25550;DHT22;13444;50.562;7.262;2022-08-01T00:28:50;23.00;99.90
25550;DHT22;13444;50.562;7.262;2022-08-01T00:31:16;23.00;99.90
25550;DHT22;13444;50.562;7.262;2022-08-01T00:33:42;23.00;99.90
25550;DHT22;13444;50.562;7.262;2022-08-01T00:36:07;22.90;99.90
25550;DHT22;13444;50.562;7.262;2022-08-01T00:38:33;23.00;99.90
25550;DHT22;13444;50.562;7.262;2022-08-01T00:40:58;22.90;99.90
25550;DHT22;13444;50.562;7.262;2022-08-01T00:43:24;22.90;99.90
25550;DHT22;13444;50.562;7.262;2022-08-01T00:45:49;23.00;99.90
25550;DHT22;13444;50.562;7.262;2022-08-01T00:48:15;22.90;99.90
25550;DHT22;13444;50.562;7.262;2022-08-01T00:50:41;22.90;99.90
25550;DHT22;13444;50.562;7.262;2022-08-01T00:53:07;22.90;99.90
25550;DHT22;13444;50.562;7.262;2022-08-01T00:55:32;22.90;99.90
25550;DHT22;13444;50.562;7.262;2022-08-01T00:57:58;22.90;99.90
25550;DHT22;13444;50.562;7.262;2022-08-01T01:00:25;22.90;99.90
25550;DHT22;13444;50.562;7.262;2022-08-01T01:02:51;22.90;99.90
25550;DHT22;13444;50.562;7.262;2022-08-01T01:05:17;22.90;99.90
25550;DHT22;13444;50.562;7.262;2022-08-01T01:07:56;22.90;99.90
25550;DHT22;13444;50.562;7.262;2022-08-01T01:10:43;22.80;99.90
25550;DHT22;13444;50.562;7.262;2022-08-01T01:13:18;22.90;99.90
25550;DHT22;13444;50.562;7.262;2022-08-01T01:15:49;22.80;99.90
25550;DHT22;13444;50.562;7.262;2022-08-01T01:18:26;22.80;99.90
25550;DHT22;13444;50.562;7.262;2022-08-01T01:24:04;22.70;99.90
25550;DHT22;13444;50.562;7.262;2022-08-01T01:27:29;22.70;99.90
25550;DHT22;13444;50.562;7.262;2022-08-01T01:29:30;22.70;99.90
25550;DHT22;13444;50.562;7.262;2022-08-01T01:32:29;22.70;99.90
25550;DHT22;13444;50.562;7.262;2022-08-01T01:34:59;22.70;99.90
25550;DHT22;13444;50.562;7.262;2022-08-01T01:37:26;22.70;99.90
25550;DHT22;13444;50.562;7.262;2022-08-01T01:39:54;22.70;99.90
25550;DHT22;13444;50.562;7.262;2022-08-01T01:42:22;22.70;99.90
25550;DHT22;13444;50.562;7.262;2022-08-01T01:44:50;22.70;99.90
25550;DHT22;13444;50.562;7.262;2022-08-01T01:47:17;22.70;99.90
25550;DHT22;13444;50.562;7.262;2022-08-01T01:49:45;22.70;99.90
25550;DHT22;13444;50.562;7.262;2022-08-01T01:52:12;22.70;99.90
25550;DHT22;13444;50.562;7.262;2022-08-01T01:54:46;22.70;99.90
25550;DHT22;13444;50.562;7.262;2022-08-01T01:57:14;22.70;99.90
25550;DHT22;13444;50.562;7.262;2022-08-01T01:59:41;22.60;99.90
25550;DHT22;13444;50.562;7.262;2022-08-01T02:02:09;22.70;99.90
25550;DHT22;13444;50.562;7.262;2022-08-01T02:04:37;22.60;99.90
25550;DHT22;13444;50.562;7.262;2022-08-01T02:07:05;22.60;99.90
25550;DHT22;13444;50.562;7.262;2022-08-01T02:09:33;22.60;99.90
25550;DHT22;13444;50.562;7.262;2022-08-01T02:12:02;22.70;99.90
25550;DHT22;13444;50.562;7.262;2022-08-01T02:14:28;22.60;99.90
25550;DHT22;13444;50.562;7.262;2022-08-01T02:16:55;22.60;99.90
25550;DHT22;13444;50.562;7.262;2022-08-01T02:19:22;22.50;99.90
25550;DHT22;13444;50.562;7.262;2022-08-01T02:21:52;22.50;99.90
25550;DHT22;13444;50.562;7.262;2022-08-01T02:27:14;22.50;99.90
25550;DHT22;13444;50.562;7.262;2022-08-01T02:29:43;22.50;99.90
25550;DHT22;13444;50.562;7.262;2022-08-01T02:32:19;22.50;99.90
25550;DHT22;13444;50.562;7.262;2022-08-01T02:34:46;22.50;99.90
25550;DHT22;13444;50.562;7.262;2022-08-01T02:37:14;22.40;99.90
25550;DHT22;13444;50.562;7.262;2022-08-01T02:39:41;22.40;99.90
25550;DHT22;13444;50.562;7.262;2022-08-01T02:42:08;22.40;99.90
25550;DHT22;13444;50.562;7.262;2022-08-01T02:44:39;22.40;99.90
25550;DHT22;13444;50.562;7.262;2022-08-01T02:47:05;22.40;99.90
25550;DHT22;13444;50.562;7.262;2022-08-01T02:49:36;22.40;99.90
25550;DHT22;13444;50.562;7.262;2022-08-01T02:52:06;22.40;99.90
25550;DHT22;13444;50.562;7.262;2022-08-01T02:54:33;22.40;99.90
25550;DHT22;13444;50.562;7.262;2022-08-01T02:57:00;22.40;99.90
25550;DHT22;13444;50.562;7.262;2022-08-01T02:59:28;22.30;99.90
25550;DHT22;13444;50.562;7.262;2022-08-01T03:01:56;22.30;99.90
25550;DHT22;13444;50.562;7.262;2022-08-01T03:04:22;22.30;99.90
25550;DHT22;13444;50.562;7.262;2022-08-01T03:06:49;22.30;99.90
25550;DHT22;13444;50.562;7.262;2022-08-01T03:09:16;22.30;99.90
25550;DHT22;13444;50.562;7.262;2022-08-01T03:11:43;22.30;99.90
25550;DHT22;13444;50.562;7.262;2022-08-01T03:14:10;22.30;99.90
25550;DHT22;13444;50.562;7.262;2022-08-01T03:16:38;22.30;99.90
25550;DHT22;13444;50.562;7.262;2022-08-01T03:19:07;22.20;99.90
25550;DHT22;13444;50.562;7.262;2022-08-01T03:21:34;22.20;99.90
25550;DHT22;13444;50.562;7.262;2022-08-01T03:24:01;22.20;99.90
25550;DHT22;13444;50.562;7.262;2022-08-01T03:26:30;22.10;99.90
25550;DHT22;13444;50.562;7.262;2022-08-01T03:29:10;22.20;99.90
25550;DHT22;13444;50.562;7.262;2022-08-01T03:31:38;22.10;99.90
25550;DHT22;13444;50.562;7.262;2022-08-01T03:34:07;22.10;99.90
25550;DHT22;13444;50.562;7.262;2022-08-01T03:36:36;22.10;99.90
25550;DHT22;13444;50.562;7.262;2022-08-01T03:39:03;22.10;99.90
25550;DHT22;13444;50.562;7.262;2022-08-01T03:41:35;22.10;99.90
25550;DHT22;13444;50.562;7.262;2022-08-01T03:44:06;22.10;99.90
25550;DHT22;13444;50.562;7.262;2022-08-01T03:46:40;22.10;99.90
25550;DHT22;13444;50.562;7.262;2022-08-01T03:52:09;22.10;99.90
25550;DHT22;13444;50.562;7.262;2022-08-01T03:54:43;22.00;99.90
25550;DHT22;13444;50.562;7.262;2022-08-01T03:57:11;22.00;99.90
25550;DHT22;13444;50.562;7.262;2022-08-01T03:59:37;22.00;99.90
25550;DHT22;13444;50.562;7.262;2022-08-01T04:02:04;22.00;99.90
25550;DHT22;13444;50.562;7.262;2022-08-01T04:04:30;22.00;99.90
25550;DHT22;13444;50.562;7.262;2022-08-01T04:06:56;22.00;99.90
25550;DHT22;13444;50.562;7.262;2022-08-01T04:09:22;22.10;99.90
25550;DHT22;13444;50.562;7.262;2022-08-01T04:11:48;22.00;99.90
25550;DHT22;13444;50.562;7.262;2022-08-01T04:14:14;22.00;99.90
25550;DHT22;13444;50.562;7.262;2022-08-01T04:16:39;22.00;99.90
25550;DHT22;13444;50.562;7.262;2022-08-01T04:19:05;22.00;99.90
25550;DHT22;13444;50.562;7.262;2022-08-01T04:21:34;22.00;99.90
25550;DHT22;13444;50.562;7.262;2022-08-01T04:24:18;22.20;99.90
25550;DHT22;13444;50.562;7.262;2022-08-01T04:26:46;22.50;99.90
25550;DHT22;13444;50.562;7.262;2022-08-01T04:29:15;22.80;99.90
25550;DHT22;13444;50.562;7.262;2022-08-01T04:31:43;22.90;99.90
25550;DHT22;13444;50.562;7.262;2022-08-01T04:34:11;22.80;99.90
25550;DHT22;13444;50.562;7.262;2022-08-01T04:36:39;22.80;99.90
25550;DHT22;13444;50.562;7.262;2022-08-01T04:39:07;22.90;99.90
25550;DHT22;13444;50.562;7.262;2022-08-01T04:41:34;23.00;99.90
25550;DHT22;13444;50.562;7.262;2022-08-01T04:44:01;23.10;99.90
25550;DHT22;13444;50.562;7.262;2022-08-01T04:46:29;23.20;99.90
25550;DHT22;13444;50.562;7.262;2022-08-01T04:48:55;23.20;99.90
25550;DHT22;13444;50.562;7.262;2022-08-01T04:51:21;23.30;99.90
25550;DHT22;13444;50.562;7.262;2022-08-01T04:53:50;23.30;99.90
25550;DHT22;13444;50.562;7.262;2022-08-01T04:56:19;23.30;99.90
25550;DHT22;13444;50.562;7.262;2022-08-01T04:58:46;23.30;99.90
25550;DHT22;13444;50.562;7.262;2022-08-01T05:01:12;23.40;99.90
25550;DHT22;13444;50.562;7.262;2022-08-01T05:03:38;23.30;99.90
25550;DHT22;13444;50.562;7.262;2022-08-01T05:06:04;23.30;99.90
25550;DHT22;13444;50.562;7.262;2022-08-01T05:08:29;23.30;99.90
25550;DHT22;13444;50.562;7.262;2022-08-01T05:10:55;23.40;99.90
25550;DHT22;13444;50.562;7.262;2022-08-01T05:13:21;23.40;99.90
25550;DHT22;13444;50.562;7.262;2022-08-01T05:15:47;23.50;99.90
25550;DHT22;13444;50.562;7.262;2022-08-01T05:18:12;23.50;99.90
25550;DHT22;13444;50.562;7.262;2022-08-01T05:20:38;23.60;99.90
25550;DHT22;13444;50.562;7.262;2022-08-01T05:23:04;23.60;99.90
25550;DHT22;13444;50.562;7.262;2022-08-01T05:25:30;23.60;99.90
25550;DHT22;13444;50.562;7.262;2022-08-01T05:27:56;23.50;99.90
25550;DHT22;13444;50.562;7.262;2022-08-01T05:30:21;23.50;99.90
25550;DHT22;13444;50.562;7.262;2022-08-01T05:32:47;23.60;99.90
25550;DHT22;13444;50.562;7.262;2022-08-01T05:35:12;23.70;99.90
25550;DHT22;13444;50.562;7.262;2022-08-01T05:37:38;23.70;99.90
25550;DHT22;13444;50.562;7.262;2022-08-01T05:40:05;23.70;99.90
25550;DHT22;13444;50.562;7.262;2022-08-01T05:42:31;23.80;99.90
25550;DHT22;13444;50.562;7.262;2022-08-01T05:44:56;23.80;99.90
25550;DHT22;13444;50.562;7.262;2022-08-01T05:47:22;23.90;99.90
25550;DHT22;13444;50.562;7.262;2022-08-01T05:49:47;24.00;99.90
25550;DHT22;13444;50.562;7.262;2022-08-01T05:52:13;24.00;99.90
25550;DHT22;13444;50.562;7.262;2022-08-01T05:54:39;24.10;99.90
25550;DHT22;13444;50.562;7.262;2022-08-01T05:57:05;24.00;99.90
25550;DHT22;13444;50.562;7.262;2022-08-01T05:59:31;24.00;99.90
25550;DHT22;13444;50.562;7.262;2022-08-01T06:01:57;24.10;99.90
25550;DHT22;13444;50.562;7.262;2022-08-01T06:04:22;24.00;99.90
25550;DHT22;13444;50.562;7.262;2022-08-01T06:06:48;23.90;99.90
25550;DHT22;13444;50.562;7.262;2022-08-01T06:09:14;23.90;99.90
25550;DHT22;13444;50.562;7.262;2022-08-01T06:11:40;23.90;99.90
25550;DHT22;13444;50.562;7.262;2022-08-01T06:14:05;23.90;99.90
25550;DHT22;13444;50.562;7.262;2022-08-01T06:16:31;23.90;99.90
25550;DHT22;13444;50.562;7.262;2022-08-01T06:18:57;24.00;99.90
25550;DHT22;13444;50.562;7.262;2022-08-01T06:21:22;23.90;99.90
25550;DHT22;13444;50.562;7.262;2022-08-01T06:23:48;23.90;99.90
25550;DHT22;13444;50.562;7.262;2022-08-01T06:26:13;24.00;99.90
25550;DHT22;13444;50.562;7.262;2022-08-01T06:28:39;24.10;99.90
25550;DHT22;13444;50.562;7.262;2022-08-01T06:31:04;24.10;99.90
25550;DHT22;13444;50.562;7.262;2022-08-01T06:33:30;24.10;99.90
25550;DHT22;13444;50.562;7.262;2022-08-01T06:35:56;24.00;99.90
25550;DHT22;13444;50.562;7.262;2022-08-01T06:38:21;23.90;99.90
25550;DHT22;13444;50.562;7.262;2022-08-01T06:40:47;24.00;99.90
25550;DHT22;13444;50.562;7.262;2022-08-01T06:43:12;24.10;99.90
25550;DHT22;13444;50.562;7.262;2022-08-01T06:45:41;24.10;99.90
25550;DHT22;13444;50.562;7.262;2022-08-01T06:48:06;24.20;99.90
25550;DHT22;13444;50.562;7.262;2022-08-01T06:50:33;24.30;99.90
25550;DHT22;13444;50.562;7.262;2022-08-01T06:53:00;24.30;99.90
25550;DHT22;13444;50.562;7.262;2022-08-01T06:55:26;24.30;99.90
25550;DHT22;13444;50.562;7.262;2022-08-01T06:57:53;24.30;99.90
25550;DHT22;13444;50.562;7.262;2022-08-01T07:00:20;24.20;99.90
25550;DHT22;13444;50.562;7.262;2022-08-01T07:02:51;24.20;99.90
25550;DHT22;13444;50.562;7.262;2022-08-01T07:05:17;24.10;99.90
25550;DHT22;13444;50.562;7.262;2022-08-01T07:07:42;24.10;99.90
25550;DHT22;13444;50.562;7.262;2022-08-01T07:10:09;24.20;99.90
25550;DHT22;13444;50.562;7.262;2022-08-01T07:12:35;24.30;99.90
25550;DHT22;13444;50.562;7.262;2022-08-01T07:15:04;24.30;99.90
25550;DHT22;13444;50.562;7.262;2022-08-01T07:17:30;24.40;99.90
25550;DHT22;13444;50.562;7.262;2022-08-01T07:19:56;24.40;99.90
25550;DHT22;13444;50.562;7.262;2022-08-01T07:22:21;24.40;99.90
25550;DHT22;13444;50.562;7.262;2022-08-01T07:24:47;24.30;99.90
25550;DHT22;13444;50.562;7.262;2022-08-01T07:27:12;24.30;99.90
25550;DHT22;13444;50.562;7.262;2022-08-01T07:29:38;24.30;99.90
25550;DHT22;13444;50.562;7.262;2022-08-01T07:32:04;24.30;99.90
25550;DHT22;13444;50.562;7.262;2022-08-01T07:34:30;24.50;99.90
25550;DHT22;13444;50.562;7.262;2022-08-01T07:36:55;24.50;99.90
25550;DHT22;13444;50.562;7.262;2022-08-01T07:39:21;24.50;99.90
25550;DHT22;13444;50.562;7.262;2022-08-01T07:41:47;24.50;99.90
25550;DHT22;13444;50.562;7.262;2022-08-01T07:44:12;24.50;99.90
25550;DHT22;13444;50.562;7.262;2022-08-01T07:46:39;24.40;99.90
25550;DHT22;13444;50.562;7.262;2022-08-01T07:49:04;24.40;99.90
25550;DHT22;13444;50.562;7.262;2022-08-01T07:51:30;24.40;99.90
25550;DHT22;13444;50.562;7.262;2022-08-01T07:53:56;24.40;99.90
25550;DHT22;13444;50.562;7.262;2022-08-01T07:56:21;24.40;99.90
25550;DHT22;13444;50.562;7.262;2022-08-01T07:58:49;24.50;99.90
25550;DHT22;13444;50.562;7.262;2022-08-01T08:01:15;24.50;99.90
25550;DHT22;13444;50.562;7.262;2022-08-01T08:03:40;24.50;99.90
25550;DHT22;13444;50.562;7.262;2022-08-01T08:06:06;24.50;99.90
25550;DHT22;13444;50.562;7.262;2022-08-01T08:08:31;24.60;99.90
25550;DHT22;13444;50.562;7.262;2022-08-01T08:11:00;24.70;99.90
25550;DHT22;13444;50.562;7.262;2022-08-01T08:13:25;24.80;99.90
25550;DHT22;13444;50.562;7.262;2022-08-01T08:15:51;24.90;99.90
25550;DHT22;13444;50.562;7.262;2022-08-01T08:18:16;24.90;99.90
25550;DHT22;13444;50.562;7.262;2022-08-01T08:20:42;24.80;99.90
25550;DHT22;13444;50.562;7.262;2022-08-01T08:23:08;24.80;99.90
25550;DHT22;13444;50.562;7.262;2022-08-01T08:25:53;24.90;99.90
25550;DHT22;13444;50.562;7.262;2022-08-01T08:28:19;25.10;99.90
25550;DHT22;13444;50.562;7.262;2022-08-01T08:30:44;25.10;99.90
25550;DHT22;13444;50.562;7.262;2022-08-01T08:33:10;25.00;99.90
25550;DHT22;13444;50.562;7.262;2022-08-01T08:35:36;25.00;99.90
25550;DHT22;13444;50.562;7.262;2022-08-01T08:38:03;25.00;99.90
25550;DHT22;13444;50.562;7.262;2022-08-01T08:40:30;25.00;99.90
25550;DHT22;13444;50.562;7.262;2022-08-01T08:42:57;24.90;99.90
25550;DHT22;13444;50.562;7.262;2022-08-01T08:45:23;24.90;99.90
25550;DHT22;13444;50.562;7.262;2022-08-01T08:47:49;24.90;99.90
25550;DHT22;13444;50.562;7.262;2022-08-01T08:50:15;24.90;99.90
25550;DHT22;13444;50.562;7.262;2022-08-01T08:52:43;25.00;99.90
25550;DHT22;13444;50.562;7.262;2022-08-01T08:55:10;25.10;99.90
25550;DHT22;13444;50.562;7.262;2022-08-01T08:57:39;25.10;99.90
25550;DHT22;13444;50.562;7.262;2022-08-01T09:00:06;25.20;99.90
25550;DHT22;13444;50.562;7.262;2022-08-01T09:02:32;25.20;99.90
25550;DHT22;13444;50.562;7.262;2022-08-01T09:04:58;25.30;99.90
25550;DHT22;13444;50.562;7.262;2022-08-01T09:07:23;25.30;99.90
25550;DHT22;13444;50.562;7.262;2022-08-01T09:09:51;25.30;99.90
25550;DHT22;13444;50.562;7.262;2022-08-01T09:12:18;25.30;99.90
25550;DHT22;13444;50.562;7.262;2022-08-01T09:14:45;25.30;99.90
25550;DHT22;13444;50.562;7.262;2022-08-01T09:17:11;25.30;99.90
25550;DHT22;13444;50.562;7.262;2022-08-01T09:19:42;25.40;99.90
25550;DHT22;13444;50.562;7.262;2022-08-01T09:22:10;25.40;99.90
25550;DHT22;13444;50.562;7.262;2022-08-01T09:24:36;25.40;99.90
25550;DHT22;13444;50.562;7.262;2022-08-01T09:27:24;25.30;99.90
25550;DHT22;13444;50.562;7.262;2022-08-01T09:29:51;25.40;99.90
25550;DHT22;13444;50.562;7.262;2022-08-01T09:32:18;25.40;99.90
25550;DHT22;13444;50.562;7.262;2022-08-01T09:34:43;25.40;99.90
25550;DHT22;13444;50.562;7.262;2022-08-01T09:37:11;25.40;99.90
25550;DHT22;13444;50.562;7.262;2022-08-01T09:39:38;25.40;99.90
25550;DHT22;13444;50.562;7.262;2022-08-01T09:42:21;25.40;99.90
25550;DHT22;13444;50.562;7.262;2022-08-01T09:44:47;25.50;99.90
25550;DHT22;13444;50.562;7.262;2022-08-01T09:47:13;25.60;99.90
25550;DHT22;13444;50.562;7.262;2022-08-01T09:49:40;25.70;99.90
25550;DHT22;13444;50.562;7.262;2022-08-01T09:52:17;25.90;99.90
25550;DHT22;13444;50.562;7.262;2022-08-01T09:54:51;26.10;99.90
25550;DHT22;13444;50.562;7.262;2022-08-01T09:57:18;26.10;99.90
25550;DHT22;13444;50.562;7.262;2022-08-01T09:59:46;26.20;99.90
25550;DHT22;13444;50.562;7.262;2022-08-01T10:02:14;26.30;99.90
25550;DHT22;13444;50.562;7.262;2022-08-01T10:04:48;26.20;99.90
25550;DHT22;13444;50.562;7.262;2022-08-01T10:07:13;26.20;99.90
25550;DHT22;13444;50.562;7.262;2022-08-01T10:09:42;26.10;99.90
25550;DHT22;13444;50.562;7.262;2022-08-01T10:12:09;26.00;99.90
25550;DHT22;13444;50.562;7.262;2022-08-01T10:14:37;25.90;99.90
25550;DHT22;13444;50.562;7.262;2022-08-01T10:17:04;25.80;99.90
25550;DHT22;13444;50.562;7.262;2022-08-01T10:19:32;25.70;99.90
25550;DHT22;13444;50.562;7.262;2022-08-01T10:21:58;25.70;99.90
25550;DHT22;13444;50.562;7.262;2022-08-01T10:24:26;25.70;99.90
25550;DHT22;13444;50.562;7.262;2022-08-01T10:26:56;25.70;99.90
25550;DHT22;13444;50.562;7.262;2022-08-01T10:29:25;25.60;99.90
25550;DHT22;13444;50.562;7.262;2022-08-01T10:31:52;25.50;99.90
25550;DHT22;13444;50.562;7.262;2022-08-01T10:34:18;25.50;99.90
25550;DHT22;13444;50.562;7.262;2022-08-01T10:36:46;25.60;99.90
25550;DHT22;13444;50.562;7.262;2022-08-01T10:39:12;25.40;99.90
25550;DHT22;13444;50.562;7.262;2022-08-01T10:41:41;25.30;99.90
25550;DHT22;13444;50.562;7.262;2022-08-01T10:44:08;25.30;99.90
25550;DHT22;13444;50.562;7.262;2022-08-01T10:46:37;25.60;99.90
25550;DHT22;13444;50.562;7.262;2022-08-01T10:49:15;25.90;99.90
25550;DHT22;13444;50.562;7.262;2022-08-01T10:51:42;26.10;99.90
25550;DHT22;13444;50.562;7.262;2022-08-01T10:54:10;26.20;99.90
25550;DHT22;13444;50.562;7.262;2022-08-01T10:56:47;26.40;99.90
25550;DHT22;13444;50.562;7.262;2022-08-01T10:59:27;26.50;99.90
25550;DHT22;13444;50.562;7.262;2022-08-01T11:02:05;26.70;99.90
25550;DHT22;13444;50.562;7.262;2022-08-01T11:07:07;27.30;99.90
25550;DHT22;13444;50.562;7.262;2022-08-01T11:09:45;27.80;99.90
25550;DHT22;13444;50.562;7.262;2022-08-01T11:12:15;28.10;99.90
25550;DHT22;13444;50.562;7.262;2022-08-01T11:17:39;28.80;99.90
25550;DHT22;13444;50.562;7.262;2022-08-01T11:20:18;28.70;99.90
25550;DHT22;13444;50.562;7.262;2022-08-01T11:30:44;28.00;99.90
25550;DHT22;13444;50.562;7.262;2022-08-01T11:33:10;28.10;99.90
25550;DHT22;13444;50.562;7.262;2022-08-01T11:35:37;28.10;99.90
25550;DHT22;13444;50.562;7.262;2022-08-01T11:38:25;28.00;99.90
25550;DHT22;13444;50.562;7.262;2022-08-01T11:41:12;28.20;99.90
25550;DHT22;13444;50.562;7.262;2022-08-01T11:52:08;28.40;99.90
25550;DHT22;13444;50.562;7.262;2022-08-01T11:54:37;28.40;99.90
25550;DHT22;13444;50.562;7.262;2022-08-01T11:57:05;28.40;99.90
25550;DHT22;13444;50.562;7.262;2022-08-01T11:59:37;28.60;99.90
25550;DHT22;13444;50.562;7.262;2022-08-01T12:02:04;28.70;99.90
25550;DHT22;13444;50.562;7.262;2022-08-01T12:04:49;28.80;99.90
25550;DHT22;13444;50.562;7.262;2022-08-01T12:07:16;28.80;99.90
25550;DHT22;13444;50.562;7.262;2022-08-01T12:09:42;28.60;99.90
25550;DHT22;13444;50.562;7.262;2022-08-01T12:12:09;28.50;99.90
25550;DHT22;13444;50.562;7.262;2022-08-01T12:14:35;28.40;99.90
25550;DHT22;13444;50.562;7.262;2022-08-01T12:17:00;28.40;99.90
25550;DHT22;13444;50.562;7.262;2022-08-01T12:19:26;28.30;99.90
25550;DHT22;13444;50.562;7.262;2022-08-01T12:22:11;28.30;99.90
25550;DHT22;13444;50.562;7.262;2022-08-01T12:24:39;28.20;99.90
25550;DHT22;13444;50.562;7.262;2022-08-01T12:27:05;28.10;99.90
25550;DHT22;13444;50.562;7.262;2022-08-01T12:29:40;28.00;99.90
25550;DHT22;13444;50.562;7.262;2022-08-01T12:32:23;28.00;99.90
25550;DHT22;13444;50.562;7.262;2022-08-01T12:34:50;28.00;99.90
25550;DHT22;13444;50.562;7.262;2022-08-01T12:37:17;28.00;99.90
25550;DHT22;13444;50.562;7.262;2022-08-01T12:39:44;28.00;99.90
25550;DHT22;13444;50.562;7.262;2022-08-01T12:42:11;28.00;99.90
25550;DHT22;13444;50.562;7.262;2022-08-01T12:44:37;28.00;99.90
25550;DHT22;13444;50.562;7.262;2022-08-01T12:47:05;28.00;99.90
25550;DHT22;13444;50.562;7.262;2022-08-01T12:49:32;28.00;99.90
25550;DHT22;13444;50.562;7.262;2022-08-01T12:51:58;28.00;99.90
25550;DHT22;13444;50.562;7.262;2022-08-01T12:54:24;28.10;99.90
25550;DHT22;13444;50.562;7.262;2022-08-01T12:56:51;28.20;99.90
25550;DHT22;13444;50.562;7.262;2022-08-01T12:59:26;28.10;99.90
25550;DHT22;13444;50.562;7.262;2022-08-01T13:01:53;28.10;99.90
25550;DHT22;13444;50.562;7.262;2022-08-01T13:04:21;28.10;99.90
25550;DHT22;13444;50.562;7.262;2022-08-01T13:06:47;28.10;99.90
25550;DHT22;13444;50.562;7.262;2022-08-01T13:09:13;28.10;99.90
25550;DHT22;13444;50.562;7.262;2022-08-01T13:11:40;28.10;99.90
25550;DHT22;13444;50.562;7.262;2022-08-01T13:14:07;28.30;99.90
25550;DHT22;13444;50.562;7.262;2022-08-01T13:16:32;28.60;99.90
25550;DHT22;13444;50.562;7.262;2022-08-01T13:19:10;28.70;99.90
25550;DHT22;13444;50.562;7.262;2022-08-01T13:21:35;28.80;99.90
25550;DHT22;13444;50.562;7.262;2022-08-01T13:24:12;28.60;99.90
25550;DHT22;13444;50.562;7.262;2022-08-01T13:29:20;28.20;99.90
25550;DHT22;13444;50.562;7.262;2022-08-01T13:31:46;28.10;99.90
25550;DHT22;13444;50.562;7.262;2022-08-01T13:34:12;28.00;99.90
25550;DHT22;13444;50.562;7.262;2022-08-01T13:36:38;28.00;99.90
25550;DHT22;13444;50.562;7.262;2022-08-01T13:39:05;28.00;99.90
25550;DHT22;13444;50.562;7.262;2022-08-01T13:41:50;28.00;99.90
25550;DHT22;13444;50.562;7.262;2022-08-01T13:44:16;28.10;99.90
25550;DHT22;13444;50.562;7.262;2022-08-01T13:46:43;28.00;99.90
25550;DHT22;13444;50.562;7.262;2022-08-01T13:49:10;28.00;99.90
25550;DHT22;13444;50.562;7.262;2022-08-01T13:51:36;27.80;99.90
25550;DHT22;13444;50.562;7.262;2022-08-01T13:54:02;27.70;99.90
25550;DHT22;13444;50.562;7.262;2022-08-01T13:56:28;27.70;99.90
25550;DHT22;13444;50.562;7.262;2022-08-01T13:58:54;27.60;99.90
25550;DHT22;13444;50.562;7.262;2022-08-01T14:01:20;27.60;99.90
25550;DHT22;13444;50.562;7.262;2022-08-01T14:03:47;27.50;99.90
25550;DHT22;13444;50.562;7.262;2022-08-01T14:06:13;27.50;99.90
25550;DHT22;13444;50.562;7.262;2022-08-01T14:08:41;27.40;99.90
25550;DHT22;13444;50.562;7.262;2022-08-01T14:11:06;27.40;99.90
25550;DHT22;13444;50.562;7.262;2022-08-01T14:13:32;27.30;99.90
25550;DHT22;13444;50.562;7.262;2022-08-01T14:15:58;27.30;99.90
25550;DHT22;13444;50.562;7.262;2022-08-01T14:18:24;27.20;99.90
25550;DHT22;13444;50.562;7.262;2022-08-01T14:20:49;27.20;99.90
25550;DHT22;13444;50.562;7.262;2022-08-01T14:23:15;27.10;99.90
25550;DHT22;13444;50.562;7.262;2022-08-01T14:25:41;26.80;99.90
25550;DHT22;13444;50.562;7.262;2022-08-01T14:28:07;26.70;99.90
25550;DHT22;13444;50.562;7.262;2022-08-01T14:30:33;26.70;99.90
25550;DHT22;13444;50.562;7.262;2022-08-01T14:32:59;26.70;99.90
25550;DHT22;13444;50.562;7.262;2022-08-01T14:35:24;26.70;99.90
25550;DHT22;13444;50.562;7.262;2022-08-01T14:37:50;26.70;99.90
25550;DHT22;13444;50.562;7.262;2022-08-01T14:40:16;26.70;99.90
25550;DHT22;13444;50.562;7.262;2022-08-01T14:42:42;26.50;99.90
25550;DHT22;13444;50.562;7.262;2022-08-01T14:45:10;26.40;99.90
25550;DHT22;13444;50.562;7.262;2022-08-01T14:47:40;26.30;99.90
25550;DHT22;13444;50.562;7.262;2022-08-01T14:50:11;26.30;99.90
25550;DHT22;13444;50.562;7.262;2022-08-01T14:52:38;26.30;99.90
25550;DHT22;13444;50.562;7.262;2022-08-01T14:55:05;26.30;99.90
25550;DHT22;13444;50.562;7.262;2022-08-01T14:57:31;26.30;99.90
25550;DHT22;13444;50.562;7.262;2022-08-01T14:59:57;26.50;99.90
25550;DHT22;13444;50.562;7.262;2022-08-01T15:02:22;26.60;99.90
25550;DHT22;13444;50.562;7.262;2022-08-01T15:04:49;26.70;99.90
25550;DHT22;13444;50.562;7.262;2022-08-01T15:07:15;26.90;99.90
25550;DHT22;13444;50.562;7.262;2022-08-01T15:09:41;27.00;99.90
25550;DHT22;13444;50.562;7.262;2022-08-01T15:12:07;27.20;99.90
25550;DHT22;13444;50.562;7.262;2022-08-01T15:14:33;27.30;99.90
25550;DHT22;13444;50.562;7.262;2022-08-01T15:17:28;27.40;99.90
25550;DHT22;13444;50.562;7.262;2022-08-01T15:19:59;27.50;99.90
25550;DHT22;13444;50.562;7.262;2022-08-01T15:22:26;27.50;99.90
25550;DHT22;13444;50.562;7.262;2022-08-01T15:24:53;27.60;99.90
25550;DHT22;13444;50.562;7.262;2022-08-01T15:27:19;27.70;99.90
25550;DHT22;13444;50.562;7.262;2022-08-01T15:29:46;27.80;99.90
25550;DHT22;13444;50.562;7.262;2022-08-01T15:32:12;27.80;99.90
25550;DHT22;13444;50.562;7.262;2022-08-01T15:34:38;27.90;99.90
25550;DHT22;13444;50.562;7.262;2022-08-01T15:37:05;27.80;99.90
25550;DHT22;13444;50.562;7.262;2022-08-01T15:39:31;27.90;99.90
25550;DHT22;13444;50.562;7.262;2022-08-01T15:41:59;27.80;99.90
25550;DHT22;13444;50.562;7.262;2022-08-01T15:44:25;27.80;99.90
25550;DHT22;13444;50.562;7.262;2022-08-01T15:46:51;27.70;99.90
25550;DHT22;13444;50.562;7.262;2022-08-01T15:49:17;27.80;99.90
25550;DHT22;13444;50.562;7.262;2022-08-01T15:51:43;27.70;99.90
25550;DHT22;13444;50.562;7.262;2022-08-01T15:54:09;27.60;99.90
25550;DHT22;13444;50.562;7.262;2022-08-01T15:56:36;27.60;99.90
25550;DHT22;13444;50.562;7.262;2022-08-01T15:59:03;27.60;99.90
25550;DHT22;13444;50.562;7.262;2022-08-01T16:01:29;27.50;99.90
25550;DHT22;13444;50.562;7.262;2022-08-01T16:03:56;27.40;99.90
25550;DHT22;13444;50.562;7.262;2022-08-01T16:06:22;27.40;99.90
25550;DHT22;13444;50.562;7.262;2022-08-01T16:08:48;27.30;99.90